sensor_id;sensor_type;location;lat;lon;timestamp;P1;durP1;ratioP1;P2;durP2;ratioP2
52922;SDS011;38796;42.702;23.306;2022-09-04T00:01:44;9.97;;;9.07;;
52922;SDS011;38796;42.702;23.306;2022-09-04T00:03:49;9.83;;;8.77;;
52922;SDS011;38796;42.702;23.306;2022-09-04T00:05:49;12.33;;;9.73;;
52922;SDS011;38796;42.702;23.306;2022-09-04T00:07:52;15.27;;;11.33;;
52922;SDS011;38796;42.702;23.306;2022-09-04T00:09:53;18.30;;;13.57;;
52922;SDS011;38796;42.702;23.306;2022-09-04T00:12:00;14.93;;;12.37;;
52922;SDS011;38796;42.702;23.306;2022-09-04T00:14:02;12.97;;;11.33;;
52922;SDS011;38796;42.702;23.306;2022-09-04T00:16:04;12.60;;;10.67;;
52922;SDS011;38796;42.702;23.306;2022-09-04T00:18:05;11.70;;;10.23;;
52922;SDS011;38796;42.702;23.306;2022-09-04T00:20:05;11.65;;;10.45;;
52922;SDS011;38796;42.702;23.306;2022-09-04T00:22:07;13.75;;;9.23;;
52922;SDS011;38796;42.702;23.306;2022-09-04T00:24:12;12.07;;;10.53;;
52922;SDS011;38796;42.702;23.306;2022-09-04T00:26:13;12.27;;;9.20;;
52922;SDS011;38796;42.702;23.306;2022-09-04T00:28:18;11.73;;;9.33;;
52922;SDS011;38796;42.702;23.306;2022-09-04T00:30:17;13.45;;;10.10;;
52922;SDS011;38796;42.702;23.306;2022-09-04T00:32:18;12.07;;;10.07;;
52922;SDS011;38796;42.702;23.306;2022-09-04T00:34:21;12.90;;;9.25;;
52922;SDS011;38796;42.702;23.306;2022-09-04T00:36:27;11.25;;;10.15;;
52922;SDS011;38796;42.702;23.306;2022-09-04T00:38:31;14.43;;;9.40;;
52922;SDS011;38796;42.702;23.306;2022-09-04T00:40:32;11.38;;;9.57;;
52922;SDS011;38796;42.702;23.306;2022-09-04T00:44:49;10.80;;;9.70;;
52922;SDS011;38796;42.702;23.306;2022-09-04T00:46:55;13.48;;;10.48;;
52922;SDS011;38796;42.702;23.306;2022-09-04T00:49:05;12.10;;;10.90;;
52922;SDS011;38796;42.702;23.306;2022-09-04T00:51:18;12.30;;;10.32;;
52922;SDS011;38796;42.702;23.306;2022-09-04T00:53:27;14.98;;;9.75;;
52922;SDS011;38796;42.702;23.306;2022-09-04T00:55:33;11.63;;;10.40;;
52922;SDS011;38796;42.702;23.306;2022-09-04T01:00:05;13.40;;;10.32;;
52922;SDS011;38796;42.702;23.306;2022-09-04T01:02:05;14.93;;;9.95;;
52922;SDS011;38796;42.702;23.306;2022-09-04T01:06:20;14.18;;;11.05;;
52922;SDS011;38796;42.702;23.306;2022-09-04T01:08:31;11.77;;;10.15;;
52922;SDS011;38796;42.702;23.306;2022-09-04T01:10:40;15.32;;;10.00;;
52922;SDS011;38796;42.702;23.306;2022-09-04T01:12:43;12.95;;;9.85;;
52922;SDS011;38796;42.702;23.306;2022-09-04T01:14:44;15.60;;;10.70;;
52922;SDS011;38796;42.702;23.306;2022-09-04T01:16:50;14.20;;;10.05;;
52922;SDS011;38796;42.702;23.306;2022-09-04T01:18:51;15.10;;;10.18;;
52922;SDS011;38796;42.702;23.306;2022-09-04T01:20:52;12.27;;;9.73;;
52922;SDS011;38796;42.702;23.306;2022-09-04T01:23:04;11.40;;;10.23;;
52922;SDS011;38796;42.702;23.306;2022-09-04T01:25:14;11.05;;;9.85;;
52922;SDS011;38796;42.702;23.306;2022-09-04T01:27:17;10.50;;;9.43;;
52922;SDS011;38796;42.702;23.306;2022-09-04T01:29:21;13.10;;;9.60;;
52922;SDS011;38796;42.702;23.306;2022-09-04T01:31:21;13.48;;;9.60;;
52922;SDS011;38796;42.702;23.306;2022-09-04T01:33:23;12.00;;;9.60;;
52922;SDS011;38796;42.702;23.306;2022-09-04T01:35:25;10.98;;;9.88;;
52922;SDS011;38796;42.702;23.306;2022-09-04T01:37:28;11.68;;;9.50;;
52922;SDS011;38796;42.702;23.306;2022-09-04T01:39:27;11.10;;;9.90;;
52922;SDS011;38796;42.702;23.306;2022-09-04T01:41:28;11.40;;;9.57;;
52922;SDS011;38796;42.702;23.306;2022-09-04T01:43:35;12.45;;;10.63;;
52922;SDS011;38796;42.702;23.306;2022-09-04T01:45:36;11.57;;;9.63;;
52922;SDS011;38796;42.702;23.306;2022-09-04T01:47:40;13.07;;;10.85;;
52922;SDS011;38796;42.702;23.306;2022-09-04T01:49:39;18.88;;;10.23;;
52922;SDS011;38796;42.702;23.306;2022-09-04T01:51:41;14.93;;;10.90;;
52922;SDS011;38796;42.702;23.306;2022-09-04T01:53:41;12.32;;;10.50;;
52922;SDS011;38796;42.702;23.306;2022-09-04T01:55:43;12.60;;;9.82;;
52922;SDS011;38796;42.702;23.306;2022-09-04T01:57:45;15.13;;;10.32;;
52922;SDS011;38796;42.702;23.306;2022-09-04T01:59:53;13.60;;;10.82;;
52922;SDS011;38796;42.702;23.306;2022-09-04T02:01:57;10.82;;;9.68;;
52922;SDS011;38796;42.702;23.306;2022-09-04T02:03:59;11.85;;;10.55;;
52922;SDS011;38796;42.702;23.306;2022-09-04T02:06:04;13.77;;;9.77;;
52922;SDS011;38796;42.702;23.306;2022-09-04T02:08:12;12.00;;;10.30;;
52922;SDS011;38796;42.702;23.306;2022-09-04T02:10:16;11.45;;;9.90;;
52922;SDS011;38796;42.702;23.306;2022-09-04T02:12:21;10.25;;;9.15;;
52922;SDS011;38796;42.702;23.306;2022-09-04T02:14:26;12.55;;;10.00;;
52922;SDS011;38796;42.702;23.306;2022-09-04T02:16:34;12.55;;;10.13;;
52922;SDS011;38796;42.702;23.306;2022-09-04T02:18:40;11.60;;;9.32;;
52922;SDS011;38796;42.702;23.306;2022-09-04T02:20:43;11.88;;;9.98;;
52922;SDS011;38796;42.702;23.306;2022-09-04T02:22:44;15.55;;;9.90;;
52922;SDS011;38796;42.702;23.306;2022-09-04T02:24:47;17.08;;;10.02;;
52922;SDS011;38796;42.702;23.306;2022-09-04T02:26:49;15.70;;;11.20;;
52922;SDS011;38796;42.702;23.306;2022-09-04T02:28:53;14.00;;;10.27;;
52922;SDS011;38796;42.702;23.306;2022-09-04T02:30:57;15.80;;;10.07;;
52922;SDS011;38796;42.702;23.306;2022-09-04T02:33:01;15.85;;;10.93;;
52922;SDS011;38796;42.702;23.306;2022-09-04T02:35:05;11.73;;;10.02;;
52922;SDS011;38796;42.702;23.306;2022-09-04T02:37:06;13.40;;;10.80;;
52922;SDS011;38796;42.702;23.306;2022-09-04T02:39:07;22.08;;;11.18;;
52922;SDS011;38796;42.702;23.306;2022-09-04T02:41:11;14.80;;;10.68;;
52922;SDS011;38796;42.702;23.306;2022-09-04T02:43:29;12.90;;;11.05;;
52922;SDS011;38796;42.702;23.306;2022-09-04T02:45:32;15.95;;;11.20;;
52922;SDS011;38796;42.702;23.306;2022-09-04T02:47:32;13.43;;;11.32;;
52922;SDS011;38796;42.702;23.306;2022-09-04T02:49:36;15.60;;;12.32;;
52922;SDS011;38796;42.702;23.306;2022-09-04T02:51:47;14.30;;;12.55;;
52922;SDS011;38796;42.702;23.306;2022-09-04T02:53:50;18.88;;;13.23;;
52922;SDS011;38796;42.702;23.306;2022-09-04T02:55:56;17.75;;;13.45;;
52922;SDS011;38796;42.702;23.306;2022-09-04T02:57:59;16.38;;;13.07;;
52922;SDS011;38796;42.702;23.306;2022-09-04T02:59:59;21.65;;;15.27;;
52922;SDS011;38796;42.702;23.306;2022-09-04T03:02:02;19.23;;;13.85;;
52922;SDS011;38796;42.702;23.306;2022-09-04T03:04:03;20.00;;;14.98;;
52922;SDS011;38796;42.702;23.306;2022-09-04T03:06:05;18.85;;;14.27;;
52922;SDS011;38796;42.702;23.306;2022-09-04T03:08:06;19.40;;;14.55;;
52922;SDS011;38796;42.702;23.306;2022-09-04T03:10:07;22.52;;;15.30;;
52922;SDS011;38796;42.702;23.306;2022-09-04T03:12:11;25.75;;;14.75;;
52922;SDS011;38796;42.702;23.306;2022-09-04T03:14:14;23.80;;;15.00;;
52922;SDS011;38796;42.702;23.306;2022-09-04T03:16:15;21.83;;;14.80;;
52922;SDS011;38796;42.702;23.306;2022-09-04T03:18:16;22.60;;;15.23;;
52922;SDS011;38796;42.702;23.306;2022-09-04T03:20:18;23.00;;;14.82;;
52922;SDS011;38796;42.702;23.306;2022-09-04T03:22:21;21.52;;;13.85;;
52922;SDS011;38796;42.702;23.306;2022-09-04T03:24:22;19.25;;;13.60;;
52922;SDS011;38796;42.702;23.306;2022-09-04T03:26:23;21.42;;;13.32;;
52922;SDS011;38796;42.702;23.306;2022-09-04T03:28:25;24.08;;;13.63;;
52922;SDS011;38796;42.702;23.306;2022-09-04T03:30:25;16.40;;;14.30;;
52922;SDS011;38796;42.702;23.306;2022-09-04T03:32:25;20.30;;;15.23;;
52922;SDS011;38796;42.702;23.306;2022-09-04T03:34:27;27.75;;;15.10;;
52922;SDS011;38796;42.702;23.306;2022-09-04T03:36:28;27.50;;;14.65;;
52922;SDS011;38796;42.702;23.306;2022-09-04T03:38:32;35.67;;;15.05;;
52922;SDS011;38796;42.702;23.306;2022-09-04T03:40:32;18.88;;;14.85;;
52922;SDS011;38796;42.702;23.306;2022-09-04T03:42:34;25.73;;;15.68;;
52922;SDS011;38796;42.702;23.306;2022-09-04T03:44:43;21.45;;;16.60;;
52922;SDS011;38796;42.702;23.306;2022-09-04T03:46:51;24.17;;;16.67;;
52922;SDS011;38796;42.702;23.306;2022-09-04T03:48:56;23.50;;;16.70;;
52922;SDS011;38796;42.702;23.306;2022-09-04T03:50:58;21.40;;;15.95;;
52922;SDS011;38796;42.702;23.306;2022-09-04T03:53:00;26.95;;;17.65;;
52922;SDS011;38796;42.702;23.306;2022-09-04T03:59:51;24.58;;;17.75;;
52922;SDS011;38796;42.702;23.306;2022-09-04T04:01:52;31.33;;;18.90;;
52922;SDS011;38796;42.702;23.306;2022-09-04T04:04:10;24.30;;;17.08;;
52922;SDS011;38796;42.702;23.306;2022-09-04T04:06:14;22.52;;;17.90;;
52922;SDS011;38796;42.702;23.306;2022-09-04T04:08:22;26.77;;;16.85;;
52922;SDS011;38796;42.702;23.306;2022-09-04T04:10:25;24.25;;;17.25;;
52922;SDS011;38796;42.702;23.306;2022-09-04T04:12:35;31.38;;;16.38;;
52922;SDS011;38796;42.702;23.306;2022-09-04T04:14:42;29.67;;;17.55;;
52922;SDS011;38796;42.702;23.306;2022-09-04T04:16:47;28.63;;;16.95;;
52922;SDS011;38796;42.702;23.306;2022-09-04T04:18:58;22.05;;;16.13;;
52922;SDS011;38796;42.702;23.306;2022-09-04T04:21:04;20.65;;;14.68;;
52922;SDS011;38796;42.702;23.306;2022-09-04T04:25:25;30.25;;;14.65;;
52922;SDS011;38796;42.702;23.306;2022-09-04T04:27:29;23.85;;;15.38;;
52922;SDS011;38796;42.702;23.306;2022-09-04T04:29:36;26.92;;;15.80;;
52922;SDS011;38796;42.702;23.306;2022-09-04T04:31:46;20.15;;;15.18;;
52922;SDS011;38796;42.702;23.306;2022-09-04T04:34:08;26.35;;;15.77;;
52922;SDS011;38796;42.702;23.306;2022-09-04T04:36:11;20.50;;;15.63;;
52922;SDS011;38796;42.702;23.306;2022-09-04T04:38:23;27.02;;;17.10;;
52922;SDS011;38796;42.702;23.306;2022-09-04T04:40:32;29.27;;;16.25;;
52922;SDS011;38796;42.702;23.306;2022-09-04T04:42:32;36.83;;;16.27;;
52922;SDS011;38796;42.702;23.306;2022-09-04T04:44:38;38.42;;;16.73;;
52922;SDS011;38796;42.702;23.306;2022-09-04T04:46:59;29.90;;;16.45;;
52922;SDS011;38796;42.702;23.306;2022-09-04T04:49:14;40.90;;;19.55;;
52922;SDS011;38796;42.702;23.306;2022-09-04T04:51:18;41.13;;;19.35;;
52922;SDS011;38796;42.702;23.306;2022-09-04T04:55:19;45.88;;;19.75;;
52922;SDS011;38796;42.702;23.306;2022-09-04T04:57:26;44.45;;;19.48;;
52922;SDS011;38796;42.702;23.306;2022-09-04T04:59:26;38.70;;;19.92;;
52922;SDS011;38796;42.702;23.306;2022-09-04T05:01:32;31.60;;;18.40;;
52922;SDS011;38796;42.702;23.306;2022-09-04T05:03:32;33.33;;;18.77;;
52922;SDS011;38796;42.702;23.306;2022-09-04T05:05:47;27.85;;;16.65;;
52922;SDS011;38796;42.702;23.306;2022-09-04T05:07:50;40.83;;;17.58;;
52922;SDS011;38796;42.702;23.306;2022-09-04T05:10:04;32.13;;;17.60;;
52922;SDS011;38796;42.702;23.306;2022-09-04T05:12:08;25.77;;;18.42;;
52922;SDS011;38796;42.702;23.306;2022-09-04T05:14:13;36.22;;;19.05;;
52922;SDS011;38796;42.702;23.306;2022-09-04T05:16:16;35.85;;;19.95;;
52922;SDS011;38796;42.702;23.306;2022-09-04T05:18:18;54.20;;;21.55;;
52922;SDS011;38796;42.702;23.306;2022-09-04T05:20:24;34.33;;;21.40;;
52922;SDS011;38796;42.702;23.306;2022-09-04T05:22:28;42.45;;;21.92;;
52922;SDS011;38796;42.702;23.306;2022-09-04T05:24:31;38.53;;;24.40;;
52922;SDS011;38796;42.702;23.306;2022-09-04T05:26:32;43.30;;;23.73;;
52922;SDS011;38796;42.702;23.306;2022-09-04T05:28:36;35.78;;;23.67;;
52922;SDS011;38796;42.702;23.306;2022-09-04T05:30:37;39.90;;;24.73;;
52922;SDS011;38796;42.702;23.306;2022-09-04T05:32:38;38.63;;;25.50;;
52922;SDS011;38796;42.702;23.306;2022-09-04T05:34:47;35.75;;;25.10;;
52922;SDS011;38796;42.702;23.306;2022-09-04T05:36:58;40.75;;;25.48;;
52922;SDS011;38796;42.702;23.306;2022-09-04T05:39:02;35.22;;;24.23;;
52922;SDS011;38796;42.702;23.306;2022-09-04T05:41:03;42.25;;;27.02;;
52922;SDS011;38796;42.702;23.306;2022-09-04T05:43:03;42.40;;;25.67;;
52922;SDS011;38796;42.702;23.306;2022-09-04T05:45:04;41.60;;;26.47;;
52922;SDS011;38796;42.702;23.306;2022-09-04T05:47:13;41.30;;;27.97;;
52922;SDS011;38796;42.702;23.306;2022-09-04T05:49:17;41.17;;;27.20;;
52922;SDS011;38796;42.702;23.306;2022-09-04T05:53:50;48.40;;;30.03;;
52922;SDS011;38796;42.702;23.306;2022-09-04T05:56:07;47.13;;;30.40;;
52922;SDS011;38796;42.702;23.306;2022-09-04T05:58:13;44.10;;;28.47;;
52922;SDS011;38796;42.702;23.306;2022-09-04T06:00:15;45.07;;;26.63;;
52922;SDS011;38796;42.702;23.306;2022-09-04T06:02:28;47.60;;;26.80;;
52922;SDS011;38796;42.702;23.306;2022-09-04T06:04:42;41.97;;;26.20;;
52922;SDS011;38796;42.702;23.306;2022-09-04T06:06:47;42.87;;;25.60;;
52922;SDS011;38796;42.702;23.306;2022-09-04T06:09:01;41.80;;;25.27;;
52922;SDS011;38796;42.702;23.306;2022-09-04T06:13:17;37.53;;;24.57;;
52922;SDS011;38796;42.702;23.306;2022-09-04T06:15:26;37.90;;;26.07;;
52922;SDS011;38796;42.702;23.306;2022-09-04T06:17:42;44.63;;;27.80;;
52922;SDS011;38796;42.702;23.306;2022-09-04T06:19:47;38.83;;;25.30;;
52922;SDS011;38796;42.702;23.306;2022-09-04T06:21:59;43.73;;;25.57;;
52922;SDS011;38796;42.702;23.306;2022-09-04T06:24:03;39.10;;;26.57;;
52922;SDS011;38796;42.702;23.306;2022-09-04T06:26:10;34.43;;;25.30;;
52922;SDS011;38796;42.702;23.306;2022-09-04T06:28:18;34.00;;;24.33;;
52922;SDS011;38796;42.702;23.306;2022-09-04T06:30:21;32.83;;;23.93;;
52922;SDS011;38796;42.702;23.306;2022-09-04T06:32:29;40.00;;;25.40;;
52922;SDS011;38796;42.702;23.306;2022-09-04T06:34:44;35.80;;;24.20;;
52922;SDS011;38796;42.702;23.306;2022-09-04T06:36:50;36.93;;;25.43;;
52922;SDS011;38796;42.702;23.306;2022-09-04T06:38:56;35.60;;;24.03;;
52922;SDS011;38796;42.702;23.306;2022-09-04T06:40:57;36.83;;;24.20;;
52922;SDS011;38796;42.702;23.306;2022-09-04T06:43:02;44.25;;;25.45;;
52922;SDS011;38796;42.702;23.306;2022-09-04T06:45:13;33.77;;;23.70;;
52922;SDS011;38796;42.702;23.306;2022-09-04T06:47:18;39.50;;;25.73;;
52922;SDS011;38796;42.702;23.306;2022-09-04T06:49:20;44.60;;;26.53;;
52922;SDS011;38796;42.702;23.306;2022-09-04T06:51:22;38.00;;;25.67;;
52922;SDS011;38796;42.702;23.306;2022-09-04T06:53:33;37.73;;;24.73;;
52922;SDS011;38796;42.702;23.306;2022-09-04T06:55:37;39.53;;;24.97;;
52922;SDS011;38796;42.702;23.306;2022-09-04T06:57:45;33.03;;;23.77;;
52922;SDS011;38796;42.702;23.306;2022-09-04T07:02:09;31.37;;;21.57;;
52922;SDS011;38796;42.702;23.306;2022-09-04T07:04:16;34.67;;;24.00;;
52922;SDS011;38796;42.702;23.306;2022-09-04T07:06:17;34.60;;;23.45;;
52922;SDS011;38796;42.702;23.306;2022-09-04T07:08:24;31.07;;;22.23;;
52922;SDS011;38796;42.702;23.306;2022-09-04T07:10:27;33.27;;;23.43;;
52922;SDS011;38796;42.702;23.306;2022-09-04T07:12:32;31.57;;;21.97;;
52922;SDS011;38796;42.702;23.306;2022-09-04T07:14:41;33.20;;;22.07;;
52922;SDS011;38796;42.702;23.306;2022-09-04T07:16:40;33.00;;;21.60;;
52922;SDS011;38796;42.702;23.306;2022-09-04T07:21:11;27.67;;;20.63;;
52922;SDS011;38796;42.702;23.306;2022-09-04T07:23:23;26.47;;;20.13;;
52922;SDS011;38796;42.702;23.306;2022-09-04T07:25:24;27.87;;;19.87;;
52922;SDS011;38796;42.702;23.306;2022-09-04T07:27:27;29.33;;;21.27;;
52922;SDS011;38796;42.702;23.306;2022-09-04T07:29:32;31.23;;;20.93;;
52922;SDS011;38796;42.702;23.306;2022-09-04T07:31:33;31.70;;;21.97;;
52922;SDS011;38796;42.702;23.306;2022-09-04T07:33:34;29.87;;;22.23;;
52922;SDS011;38796;42.702;23.306;2022-09-04T07:35:36;33.23;;;23.13;;
52922;SDS011;38796;42.702;23.306;2022-09-04T07:37:39;32.93;;;20.90;;
52922;SDS011;38796;42.702;23.306;2022-09-04T07:39:42;27.77;;;22.15;;
52922;SDS011;38796;42.702;23.306;2022-09-04T07:43:43;25.83;;;19.33;;
52922;SDS011;38796;42.702;23.306;2022-09-04T07:45:51;27.03;;;18.53;;
52922;SDS011;38796;42.702;23.306;2022-09-04T07:48:04;24.10;;;19.03;;
52922;SDS011;38796;42.702;23.306;2022-09-04T07:50:06;22.77;;;19.17;;
52922;SDS011;38796;42.702;23.306;2022-09-04T07:52:09;33.67;;;19.63;;
52922;SDS011;38796;42.702;23.306;2022-09-04T07:54:19;30.47;;;19.17;;
52922;SDS011;38796;42.702;23.306;2022-09-04T07:56:22;25.63;;;17.00;;
52922;SDS011;38796;42.702;23.306;2022-09-04T07:58:31;21.67;;;17.43;;
52922;SDS011;38796;42.702;23.306;2022-09-04T08:00:37;19.75;;;15.20;;
52922;SDS011;38796;42.702;23.306;2022-09-04T08:07:06;17.93;;;15.03;;
52922;SDS011;38796;42.702;23.306;2022-09-04T08:09:19;16.27;;;14.50;;
52922;SDS011;38796;42.702;23.306;2022-09-04T08:11:28;17.00;;;15.00;;
52922;SDS011;38796;42.702;23.306;2022-09-04T08:13:36;22.07;;;15.77;;
52922;SDS011;38796;42.702;23.306;2022-09-04T08:15:40;22.20;;;15.57;;
52922;SDS011;38796;42.702;23.306;2022-09-04T08:17:46;20.33;;;15.97;;
52922;SDS011;38796;42.702;23.306;2022-09-04T08:19:48;18.10;;;14.10;;
52922;SDS011;38796;42.702;23.306;2022-09-04T08:21:46;17.47;;;15.60;;
52922;SDS011;38796;42.702;23.306;2022-09-04T08:23:58;23.97;;;14.37;;
52922;SDS011;38796;42.702;23.306;2022-09-04T08:26:03;18.00;;;13.30;;
52922;SDS011;38796;42.702;23.306;2022-09-04T08:28:13;14.87;;;12.63;;
52922;SDS011;38796;42.702;23.306;2022-09-04T08:30:13;14.88;;;12.98;;
52922;SDS011;38796;42.702;23.306;2022-09-04T08:32:15;19.87;;;12.70;;
52922;SDS011;38796;42.702;23.306;2022-09-04T08:34:28;13.93;;;12.50;;
52922;SDS011;38796;42.702;23.306;2022-09-04T08:36:33;21.30;;;12.27;;
52922;SDS011;38796;42.702;23.306;2022-09-04T08:38:51;13.47;;;11.93;;
52922;SDS011;38796;42.702;23.306;2022-09-04T08:43:18;11.53;;;10.00;;
52922;SDS011;38796;42.702;23.306;2022-09-04T08:45:26;16.83;;;10.20;;
52922;SDS011;38796;42.702;23.306;2022-09-04T08:47:44;8.80;;;8.00;;
52922;SDS011;38796;42.702;23.306;2022-09-04T08:54:41;11.33;;;7.90;;
52922;SDS011;38796;42.702;23.306;2022-09-04T08:56:47;9.30;;;7.57;;
52922;SDS011;38796;42.702;23.306;2022-09-04T09:03:34;8.52;;;5.63;;
52922;SDS011;38796;42.702;23.306;2022-09-04T09:05:56;6.13;;;5.05;;
52922;SDS011;38796;42.702;23.306;2022-09-04T09:08:10;7.00;;;5.07;;
52922;SDS011;38796;42.702;23.306;2022-09-04T09:16:58;3.22;;;2.97;;
52922;SDS011;38796;42.702;23.306;2022-09-04T09:19:09;3.90;;;2.40;;
52922;SDS011;38796;42.702;23.306;2022-09-04T09:21:08;2.83;;;2.58;;
52922;SDS011;38796;42.702;23.306;2022-09-04T09:23:14;3.35;;;2.60;;
52922;SDS011;38796;42.702;23.306;2022-09-04T09:25:14;2.90;;;2.70;;
52922;SDS011;38796;42.702;23.306;2022-09-04T09:27:29;2.23;;;2.13;;
52922;SDS011;38796;42.702;23.306;2022-09-04T09:29:37;2.13;;;2.03;;
52922;SDS011;38796;42.702;23.306;2022-09-04T09:36:25;2.30;;;2.20;;
52922;SDS011;38796;42.702;23.306;2022-09-04T09:40:49;2.97;;;2.78;;
52922;SDS011;38796;42.702;23.306;2022-09-04T09:45:20;3.03;;;2.28;;
52922;SDS011;38796;42.702;23.306;2022-09-04T09:49:56;3.92;;;1.85;;
52922;SDS011;38796;42.702;23.306;2022-09-04T09:54:23;2.35;;;2.25;;
52922;SDS011;38796;42.702;23.306;2022-09-04T10:01:05;3.60;;;3.10;;
52922;SDS011;38796;42.702;23.306;2022-09-04T10:05:43;2.30;;;2.20;;
52922;SDS011;38796;42.702;23.306;2022-09-04T10:08:02;3.10;;;2.90;;
52922;SDS011;38796;42.702;23.306;2022-09-04T10:10:18;4.05;;;1.95;;
52922;SDS011;38796;42.702;23.306;2022-09-04T10:12:35;3.55;;;2.40;;
52922;SDS011;38796;42.702;23.306;2022-09-04T10:16:50;3.13;;;2.90;;
52922;SDS011;38796;42.702;23.306;2022-09-04T10:21:17;3.08;;;2.88;;
52922;SDS011;38796;42.702;23.306;2022-09-04T10:23:25;2.70;;;2.60;;
52922;SDS011;38796;42.702;23.306;2022-09-04T10:25:38;3.35;;;2.92;;
52922;SDS011;38796;42.702;23.306;2022-09-04T10:28:00;3.92;;;2.70;;
52922;SDS011;38796;42.702;23.306;2022-09-04T10:30:06;3.97;;;3.40;;
52922;SDS011;38796;42.702;23.306;2022-09-04T10:32:12;3.55;;;3.25;;
52922;SDS011;38796;42.702;23.306;2022-09-04T10:34:20;3.17;;;3.08;;
52922;SDS011;38796;42.702;23.306;2022-09-04T10:36:25;7.10;;;2.85;;
52922;SDS011;38796;42.702;23.306;2022-09-04T10:41:18;4.00;;;3.00;;
52922;SDS011;38796;42.702;23.306;2022-09-04T10:43:26;3.38;;;3.17;;
52922;SDS011;38796;42.702;23.306;2022-09-04T10:45:27;4.05;;;2.97;;
52922;SDS011;38796;42.702;23.306;2022-09-04T10:47:34;3.80;;;3.30;;
52922;SDS011;38796;42.702;23.306;2022-09-04T10:49:37;5.82;;;2.88;;
52922;SDS011;38796;42.702;23.306;2022-09-04T10:51:47;3.55;;;3.25;;
52922;SDS011;38796;42.702;23.306;2022-09-04T10:56:07;2.85;;;2.75;;
52922;SDS011;38796;42.702;23.306;2022-09-04T10:58:14;3.90;;;3.60;;
52922;SDS011;38796;42.702;23.306;2022-09-04T11:00:19;3.97;;;3.28;;
52922;SDS011;38796;42.702;23.306;2022-09-04T11:02:24;3.90;;;3.17;;
52922;SDS011;38796;42.702;23.306;2022-09-04T11:04:46;6.43;;;3.47;;
52922;SDS011;38796;42.702;23.306;2022-09-04T11:07:04;6.15;;;3.08;;
52922;SDS011;38796;42.702;23.306;2022-09-04T11:09:14;5.22;;;3.72;;
52922;SDS011;38796;42.702;23.306;2022-09-04T11:11:18;4.23;;;3.30;;
52922;SDS011;38796;42.702;23.306;2022-09-04T11:16:00;3.05;;;2.85;;
52922;SDS011;38796;42.702;23.306;2022-09-04T11:18:15;4.40;;;2.90;;
52922;SDS011;38796;42.702;23.306;2022-09-04T11:20:23;6.30;;;2.67;;
52922;SDS011;38796;42.702;23.306;2022-09-04T11:22:45;3.70;;;2.95;;
52922;SDS011;38796;42.702;23.306;2022-09-04T11:29:37;2.67;;;2.47;;
52922;SDS011;38796;42.702;23.306;2022-09-04T11:31:46;2.45;;;2.35;;
52922;SDS011;38796;42.702;23.306;2022-09-04T11:34:00;2.63;;;2.53;;
52922;SDS011;38796;42.702;23.306;2022-09-04T11:38:33;2.40;;;2.30;;
52922;SDS011;38796;42.702;23.306;2022-09-04T11:42:58;5.10;;;2.40;;
52922;SDS011;38796;42.702;23.306;2022-09-04T11:47:44;4.20;;;2.60;;
52922;SDS011;38796;42.702;23.306;2022-09-04T11:54:29;2.73;;;2.43;;
52922;SDS011;38796;42.702;23.306;2022-09-04T11:56:37;3.57;;;2.60;;
52922;SDS011;38796;42.702;23.306;2022-09-04T11:58:44;2.60;;;2.40;;
52922;SDS011;38796;42.702;23.306;2022-09-04T12:00:49;3.57;;;2.37;;
52922;SDS011;38796;42.702;23.306;2022-09-04T12:05:17;1.98;;;1.88;;
52922;SDS011;38796;42.702;23.306;2022-09-04T12:07:39;3.65;;;2.45;;
52922;SDS011;38796;42.702;23.306;2022-09-04T12:09:48;3.17;;;2.70;;
52922;SDS011;38796;42.702;23.306;2022-09-04T12:11:52;4.23;;;2.50;;
52922;SDS011;38796;42.702;23.306;2022-09-04T12:13:59;2.73;;;2.53;;
52922;SDS011;38796;42.702;23.306;2022-09-04T12:18:23;1.87;;;1.77;;
52922;SDS011;38796;42.702;23.306;2022-09-04T12:20:37;3.20;;;1.80;;
52922;SDS011;38796;42.702;23.306;2022-09-04T12:22:50;1.70;;;1.70;;
52922;SDS011;38796;42.702;23.306;2022-09-04T12:25:01;3.07;;;1.50;;
52922;SDS011;38796;42.702;23.306;2022-09-04T12:27:13;2.25;;;1.17;;
52922;SDS011;38796;42.702;23.306;2022-09-04T12:29:24;2.38;;;2.25;;
52922;SDS011;38796;42.702;23.306;2022-09-04T12:31:31;4.68;;;3.60;;
52922;SDS011;38796;42.702;23.306;2022-09-04T12:40:30;4.07;;;2.55;;
52922;SDS011;38796;42.702;23.306;2022-09-04T12:42:29;3.35;;;3.13;;
52922;SDS011;38796;42.702;23.306;2022-09-04T12:44:35;1.90;;;1.80;;
52922;SDS011;38796;42.702;23.306;2022-09-04T12:46:39;1.50;;;1.40;;
52922;SDS011;38796;42.702;23.306;2022-09-04T12:48:47;6.30;;;1.95;;
52922;SDS011;38796;42.702;23.306;2022-09-04T12:50:50;3.97;;;1.75;;
52922;SDS011;38796;42.702;23.306;2022-09-04T12:52:55;5.28;;;2.05;;
52922;SDS011;38796;42.702;23.306;2022-09-04T12:54:56;6.03;;;1.90;;
52922;SDS011;38796;42.702;23.306;2022-09-04T12:57:04;8.73;;;3.80;;
52922;SDS011;38796;42.702;23.306;2022-09-04T12:59:11;2.55;;;1.70;;
52922;SDS011;38796;42.702;23.306;2022-09-04T13:01:16;5.90;;;1.87;;
52922;SDS011;38796;42.702;23.306;2022-09-04T13:03:18;3.63;;;1.65;;
52922;SDS011;38796;42.702;23.306;2022-09-04T13:05:26;3.40;;;3.10;;
52922;SDS011;38796;42.702;23.306;2022-09-04T13:07:30;3.97;;;1.13;;
52922;SDS011;38796;42.702;23.306;2022-09-04T13:09:31;1.13;;;1.03;;
52922;SDS011;38796;42.702;23.306;2022-09-04T13:11:37;5.57;;;2.50;;
52922;SDS011;38796;42.702;23.306;2022-09-04T13:13:40;4.20;;;2.20;;
52922;SDS011;38796;42.702;23.306;2022-09-04T13:15:42;2.20;;;1.10;;
52922;SDS011;38796;42.702;23.306;2022-09-04T13:17:45;8.23;;;2.78;;
52922;SDS011;38796;42.702;23.306;2022-09-04T13:19:46;9.07;;;7.57;;
52922;SDS011;38796;42.702;23.306;2022-09-04T13:21:52;4.05;;;1.98;;
52922;SDS011;38796;42.702;23.306;2022-09-04T13:26:12;1.65;;;1.55;;
52922;SDS011;38796;42.702;23.306;2022-09-04T13:28:19;1.73;;;1.63;;
52922;SDS011;38796;42.702;23.306;2022-09-04T13:30:22;1.73;;;1.63;;
52922;SDS011;38796;42.702;23.306;2022-09-04T13:32:25;3.75;;;1.80;;
52922;SDS011;38796;42.702;23.306;2022-09-04T13:34:29;1.63;;;1.53;;
52922;SDS011;38796;42.702;23.306;2022-09-04T13:36:34;4.13;;;1.03;;
52922;SDS011;38796;42.702;23.306;2022-09-04T13:38:42;0.73;;;0.73;;
52922;SDS011;38796;42.702;23.306;2022-09-04T13:40:56;2.00;;;1.40;;
52922;SDS011;38796;42.702;23.306;2022-09-04T13:43:07;0.87;;;0.87;;
52922;SDS011;38796;42.702;23.306;2022-09-04T13:45:09;0.87;;;0.80;;
52922;SDS011;38796;42.702;23.306;2022-09-04T13:47:10;2.20;;;1.00;;
52922;SDS011;38796;42.702;23.306;2022-09-04T13:49:11;1.23;;;1.00;;
52922;SDS011;38796;42.702;23.306;2022-09-04T13:51:12;2.13;;;0.90;;
52922;SDS011;38796;42.702;23.306;2022-09-04T13:53:12;4.40;;;1.00;;
52922;SDS011;38796;42.702;23.306;2022-09-04T13:55:13;3.23;;;0.93;;
52922;SDS011;38796;42.702;23.306;2022-09-04T13:57:14;1.63;;;1.27;;
52922;SDS011;38796;42.702;23.306;2022-09-04T13:59:13;2.60;;;0.90;;
52922;SDS011;38796;42.702;23.306;2022-09-04T14:01:13;0.83;;;0.83;;
52922;SDS011;38796;42.702;23.306;2022-09-04T14:03:26;1.20;;;1.20;;
52922;SDS011;38796;42.702;23.306;2022-09-04T14:05:26;2.37;;;0.83;;
52922;SDS011;38796;42.702;23.306;2022-09-04T14:07:26;1.37;;;1.27;;